Terminal Aerodrome Forecast
Issued by NWS

Home | Current Version | Previous Version | Graphics & Text | Print | Product List | Glossary On
Versions: 1 2 3 4 5 6 7 8 9 10 11 12 13 14 15
000
FTUS43 KMPX 220826 AAA
TAFRWF
TAF AMD
KRWF 220826Z 2208/2306 21006KT 6SM BR VCSH SCT010 OVC150
      TEMPO 2209/2210 6SM -SHRA BR
     FM221300 30007KT P6SM FEW015
     FM221700 31014G23KT P6SM SCT050
     FM222300 32009KT P6SM SKC=

USA.gov is the U.S. government's official web portal to all federal, state and local government web resources and services.